Date,TemperatureHighF,TemperatureAvgF,TemperatureLowF,DewpointHighF,DewpointAvgF,DewpointLowF,HumidityHigh,HumidityAvg,HumidityLow,PressureMaxIn,PressureMinIn,WindSpeedMaxMPH,WindSpeedAvgMPH,GustSpeedMaxMPH,PrecipitationSumIn
2014-1-1,53,48,42,52,46,39,98,93,89,30.09,29.83,6,1,6,0.09
2014-1-2,56,49,33,56,40,22,98,75,42,30.19,29.80,22,5,22,0.07
2014-1-3,47,33,26,23,17,10,73,55,24,30.01,29.84,15,3,15,0.00
2014-1-4,58,41,23,45,32,16,94,73,58,29.84,29.59,5,1,8,0.00
2014-1-5,67,51,32,58,47,24,98,87,69,29.76,29.38,22,4,22,0.15
2014-1-6,33,27,18,24,7,-7,74,46,22,30.16,29.76,23,7,23,0.00
2014-1-7,34,22,13,12,7,-1,75,55,25,30.21,30.03,8,1,8,0.00
2014-1-8,52,32,16,29,18,7,78,59,29,30.05,29.89,9,1,9,0.00
2014-1-9,60,42,33,44,31,21,92,67,37,29.91,29.77,8,1,8,0.00
2014-1-10,65,54,41,64,52,40,98,93,83,29.77,29.41,10,2,10,0.05
2014-1-11,70,65,35,67,46,28,99,61,22,29.67,29.37,20,5,20,0.21
2014-1-12,69,47,30,49,36,30,99,72,35,29.93,29.66,8,1,8,0.00
2014-1-13,63,56,49,62,54,43,99,94,76,29.87,29.64,8,1,8,0.37
2014-1-14,67,46,34,48,37,30,99,78,26,29.91,29.81,6,1,6,0.00
2014-1-15,54,42,27,42,26,14,99,61,22,30.05,29.88,17,4,17,0.00
2014-1-16,62,46,24,41,32,21,90,63,30,30.00,29.84,10,2,10,0.00
2014-1-17,56,42,27,44,27,14,99,63,20,30.06,29.88,17,2,17,0.00
2014-1-18,62,40,22,34,26,18,91,61,25,30.09,29.90,11,1,11,0.00
2014-1-19,65,47,32,45,34,25,99,66,23,30.04,29.88,11,2,11,0.00
2014-1-20,68,45,28,45,36,26,99,75,28,29.95,29.77,10,1,10,0.00
2014-1-21,59,48,30,58,29,14,98,52,21,30.03,29.75,23,6,23,0.00
2014-1-22,55,32,21,30,20,14,84,64,22,30.05,29.93,5,1,5,0.00
2014-1-23,50,38,28,29,26,22,91,66,33,30.42,29.99,21,4,21,0.00
2014-1-24,30,28,22,23,16,11,83,62,46,30.43,30.12,14,3,14,0.00
2014-1-25,59,37,21,34,27,17,97,71,31,30.11,29.83,13,2,13,0.02
2014-1-26,63,46,31,48,39,29,99,78,45,29.85,29.67,5,1,5,0.00
2014-1-27,60,52,38,58,42,11,99,72,30,29.95,29.66,16,4,16,0.04
2014-1-28,38,27,23,22,16,3,83,65,25,30.17,29.93,17,6,17,0.00
2014-1-29,47,24,16,38,5,1,71,45,26,30.27,29.58,14,4,14,0.00
2014-1-30,52,30,12,28,17,6,86,62,31,29.78,29.55,10,1,10,0.00
2014-1-31,66,45,29,51,39,25,96,83,57,29.61,29.50,6,1,6,0.00
2014-2-1,73,57,39,61,53,39,99,87,64,29.51,29.44,10,1,10,0.00
2014-2-2,68,62,41,68,62,41,99,98,93,29.48,29.30,16,2,16,0.40
2014-2-3,42,39,36,41,39,35,99,97,92,29.64,29.48,16,5,16,0.11
2014-2-4,68,46,40,67,46,40,99,99,97,30.14,29.46,18,2,18,1.16
2014-2-5,48,41,32,45,36,25,99,82,63,30.48,30.12,20,6,20,0.00
2014-2-6,38,32,29,29,25,23,87,75,63,30.56,30.43,14,4,14,0.00
2014-2-7,53,38,26,40,30,22,87,74,48,30.50,30.30,11,3,11,0.00
2014-2-8,63,46,33,47,40,31,97,79,52,30.39,30.24,8,1,8,0.00
2014-2-9,72,53,38,54,48,37,99,84,51,30.32,30.17,8,1,8,0.00
2014-2-10,52,47,41,51,46,41,99,98,95,30.29,30.19,11,3,11,0.52
2014-2-11,41,37,34,41,36,33,99,96,92,30.32,30.11,17,6,17,1.77
2014-2-12,38,35,33,38,34,31,99,95,91,30.17,30.04,13,5,13,0.15
2014-2-13,59,40,29,39,33,28,96,79,44,30.21,30.10,12,2,12,0.00
2014-2-14,67,49,29,55,42,27,98,80,46,30.13,29.95,13,2,13,0.00
2014-2-15,63,47,36,36,31,22,87,59,22,30.37,30.11,11,3,13,0.01
2014-2-16,74,53,32,56,45,30,98,77,43,30.31,30.22,9,1,9,0.00
2014-2-17,75,60,49,63,56,48,99,89,60,30.26,30.19,4,0,4,0.00
2014-2-18,76,66,58,67,62,57,99,87,63,30.29,30.17,8,1,8,0.00
2014-2-19,81,68,59,68,62,58,99,83,50,30.22,30.07,8,2,8,0.00
2014-2-20,82,70,58,67,64,57,98,83,51,30.08,29.95,19,3,19,3.79
2014-2-21,66,53,39,58,37,24,96,62,22,30.27,30.06,21,3,21,0.04
2014-2-22,65,55,37,46,41,36,99,62,34,30.29,30.13,8,1,8,0.77
2014-2-23,66,60,53,64,58,44,98,93,70,30.18,30.08,4,0,4,0.09
2014-2-24,64,62,54,61,51,47,99,70,57,30.30,30.16,12,4,12,0.00
2014-2-25,73,64,55,60,52,49,95,66,57,30.28,29.80,13,4,13,0.21
2014-2-26,56,46,34,54,41,24,98,84,58,29.97,29.77,21,7,21,1.04
2014-2-27,55,38,26,29,22,14,86,56,22,30.02,29.79,14,2,14,0.00
2014-2-28,67,48,28,46,35,24,89,65,31,29.87,29.76,11,2,11,0.00
2014-3-1,82,64,50,64,56,45,94,77,49,29.94,29.82,8,1,8,0.00
2014-3-2,63,62,60,61,60,59,95,94,92,29.94,29.88,6,2,6,0.00
2014-3-3,65,34,28,64,28,20,99,77,65,30.02,29.70,17,7,17,0.21
2014-3-4,33,30,28,32,26,21,93,84,75,30.01,29.90,11,2,11,0.32
2014-3-5,56,50,45,49,47,44,97,88,76,29.91,29.81,9,2,9,0.34
2014-3-6,48,45,42,48,44,41,99,98,96,29.88,29.79,12,4,12,0.24
2014-3-7,64,49,42,49,44,41,99,86,53,29.94,29.83,11,2,11,0.00
2014-3-8,71,55,42,55,49,41,99,81,48,30.01,29.88,9,1,9,0.00
2014-3-9,74,60,49,59,52,48,98,80,47,30.08,29.95,7,1,7,0.00
2014-3-10,81,62,45,59,53,44,98,77,44,30.01,29.79,11,1,11,0.00
2014-3-11,68,62,53,65,60,52,98,94,88,29.80,29.53,8,1,8,0.00
2014-3-12,66,60,45,62,49,31,99,71,42,30.01,29.55,20,6,21,0.00
2014-3-13,69,52,30,44,33,26,96,55,22,30.14,30.01,12,2,12,0.00
2014-3-14,73,53,33,52,44,32,99,75,42,30.08,29.93,9,1,9,0.00
2014-3-15,72,61,50,61,56,50,99,85,63,29.95,29.71,8,1,8,0.00
2014-3-16,80,69,52,67,57,46,94,67,43,29.99,29.79,22,5,22,2.43
2014-3-17,51,43,39,46,38,36,90,82,72,30.09,29.96,15,5,15,0.00
2014-3-18,71,51,37,50,42,34,95,76,42,30.18,30.03,8,2,8,0.00
2014-3-19,77,61,47,62,55,46,99,83,53,30.30,30.16,9,1,9,0.00
2014-3-20,76,60,46,56,45,37,98,61,25,30.38,30.25,13,2,13,0.00
2014-3-21,81,59,40,57,48,39,99,72,33,30.29,30.17,8,1,8,0.00
2014-3-22,83,67,54,64,59,52,99,78,45,30.26,30.16,8,1,8,0.00
2014-3-23,65,58,54,64,56,51,99,93,89,30.35,30.15,15,3,15,0.34
2014-3-24,68,57,48,52,47,41,90,72,41,30.33,29.73,11,3,11,0.34
2014-3-25,64,51,38,42,31,21,91,51,21,30.04,29.83,21,5,21,0.00
2014-3-26,62,46,31,39,32,26,94,61,27,30.14,29.77,11,2,11,0.00
2014-3-27,70,59,46,62,53,39,98,80,65,29.79,29.56,16,2,16,0.05
2014-3-28,70,65,62,68,64,62,99,95,85,29.57,29.44,11,2,11,1.63
2014-3-29,72,61,46,60,52,42,99,75,41,29.83,29.49,21,5,21,0.22
2014-3-30,75,54,37,50,42,36,99,71,27,29.88,29.74,11,1,11,0.00
2014-3-31,81,58,37,58,46,36,99,72,23,29.76,29.65,15,1,15,0.00
2014-4-1,82,66,53,66,60,52,99,82,51,29.75,29.65,8,1,8,0.00
2014-4-2,85,74,62,71,67,61,99,79,57,29.69,29.59,8,2,8,0.00
2014-4-3,83,74,68,70,68,66,97,83,60,29.63,29.50,8,3,9,0.00
2014-4-4,77,69,62,69,65,54,99,87,61,29.66,29.46,11,2,11,0.69
2014-4-5,76,60,56,57,50,45,98,70,35,29.70,29.56,11,4,11,0.06
2014-4-6,71,60,52,70,59,52,99,98,97,29.60,29.23,16,3,16,0.67
2014-4-7,72,63,50,70,58,49,99,84,56,29.54,29.20,14,4,14,1.67
2014-4-8,67,52,45,58,50,44,99,92,55,29.98,29.42,28,2,28,0.05
2014-4-9,74,56,41,53,44,36,99,70,26,30.14,29.97,11,2,11,0.00
2014-4-10,79,60,40,60,49,40,99,74,35,30.13,30.02,10,1,10,0.00
2014-4-11,82,64,49,64,57,49,99,81,46,30.10,29.78,7,1,7,0.00
2014-4-12,85,70,61,68,63,57,99,80,50,29.87,29.74,8,2,8,0.00
2014-4-13,84,72,62,70,65,60,99,81,53,29.76,29.58,11,2,11,0.00
2014-4-14,74,66,50,73,65,49,99,95,83,29.69,29.43,16,4,16,0.00
2014-4-15,59,49,41,49,37,26,99,67,28,29.92,29.66,21,8,21,0.00
2014-4-16,69,50,32,46,38,30,99,69,33,29.97,29.81,8,2,8,0.00
2014-4-17,67,56,41,59,52,41,99,88,71,29.93,29.84,10,2,10,0.00
2014-4-18,76,65,54,62,58,53,96,80,56,29.89,29.78,15,4,15,0.90
2014-4-19,81,64,49,57,53,49,99,73,37,29.90,29.79,11,3,11,0.00
2014-4-20,85,65,48,63,55,48,99,74,34,29.91,29.79,8,1,8,0.00
2014-4-21,82,68,57,66,61,57,99,81,49,29.86,29.69,7,1,7,0.00
2014-4-22,78,66,58,68,62,58,99,89,65,29.73,29.60,11,2,11,0.02
2014-4-23,86,69,54,65,58,54,99,74,35,29.71,29.59,9,1,9,0.00
2014-4-24,86,70,56,69,64,56,99,83,50,29.69,29.55,8,1,8,0.00
2014-4-25,87,75,58,70,60,54,99,63,36,29.71,29.61,10,2,10,0.00
2014-4-26,88,71,52,72,63,52,99,80,55,29.70,29.60,8,1,8,0.00
2014-4-27,88,77,69,74,71,68,98,84,56,29.63,29.42,14,3,14,0.00
2014-4-28,87,78,74,76,74,73,99,87,67,29.93,29.71,14,3,14,0.44
2014-4-29,84,72,59,76,69,59,99,91,69,29.93,29.79,8,1,8,0.39
2014-4-30,72,63,55,64,54,47,99,75,45,30.23,29.93,14,3,14,0.00
2014-5-1,74,59,44,56,48,39,99,71,31,30.26,30.12,12,2,12,0.00
2014-5-2,77,65,51,59,48,40,99,60,26,30.17,30.07,11,2,11,0.00
2014-5-3,85,62,45,63,50,44,99,72,28,30.21,30.14,11,1,11,0.00
2014-5-4,90,75,51,65,59,51,99,63,34,30.28,30.16,8,1,8,0.00
2014-5-5,88,69,52,66,57,51,99,72,37,30.21,30.08,6,1,8,0.00
2014-5-6,86,68,50,66,60,50,99,77,46,30.16,30.05,9,1,9,0.00
2014-5-7,87,73,59,71,65,59,99,79,48,30.19,30.07,7,1,8,0.00
2014-5-8,88,76,68,72,69,64,99,81,45,30.23,30.13,10,2,10,0.00
2014-5-9,74,69,64,74,68,63,99,97,90,30.23,30.11,10,2,11,2.35
2014-5-10,86,72,63,76,69,62,99,90,70,30.17,30.07,9,1,9,0.12
2014-5-11,87,75,71,77,72,70,99,91,64,30.18,30.09,9,2,9,0.38
2014-5-12,88,78,71,77,72,70,99,86,58,30.22,30.10,11,2,11,0.00
2014-5-13,89,77,68,74,70,65,98,82,47,30.22,29.63,11,1,11,0.00
2014-5-14,81,67,55,74,64,52,99,91,73,29.95,29.78,15,3,15,0.47
2014-5-15,73,61,47,52,48,44,99,66,37,30.05,29.95,18,5,18,0.00
2014-5-16,80,59,46,62,54,45,99,86,46,30.03,29.89,10,1,10,0.00
2014-5-17,86,69,53,67,60,52,99,78,45,30.00,29.91,8,1,8,0.00
2014-5-18,86,69,54,69,60,53,99,77,43,30.03,29.94,7,1,7,0.00
2014-5-19,82,62,54,72,60,54,99,93,55,30.01,29.96,5,0,5,0.00
2014-5-20,90,79,63,72,66,62,99,67,44,30.02,29.95,10,2,10,0.00
2014-5-21,90,77,67,74,68,64,99,77,43,30.04,29.95,8,1,8,0.00
2014-5-22,90,74,61,73,66,60,99,80,44,30.05,29.91,7,1,7,0.00
2014-5-23,90,74,61,74,67,61,99,80,46,30.00,29.87,5,1,5,0.00
2014-5-24,86,73,63,72,68,62,99,86,55,29.98,29.87,6,1,6,0.00
2014-5-25,91,75,62,75,66,61,99,78,42,29.96,29.85,9,1,9,0.00
2014-5-26,90,75,62,75,68,62,99,80,48,29.99,29.89,7,1,7,0.00
2014-5-27,88,76,70,76,71,68,98,87,55,29.93,29.87,8,1,8,0.00
2014-5-28,73,70,67,72,69,67,99,98,96,29.81,29.70,4,1,8,1.94
2014-5-29,81,72,69,77,71,69,99,97,85,29.74,29.68,8,2,8,0.17
2014-5-30,82,75,70,78,73,70,99,94,81,29.80,29.69,11,2,11,0.43
2014-5-31,76,72,70,75,72,69,99,97,94,29.83,29.77,8,1,8,0.19
2014-6-1,82,74,68,76,72,68,99,94,78,29.89,29.82,7,2,11,0.24
2014-6-2,85,76,71,78,73,70,99,92,71,29.92,29.86,8,2,8,0.19
2014-6-3,86,75,69,77,72,68,99,93,67,29.92,29.83,9,1,9,0.53
2014-6-4,90,77,69,78,73,69,99,87,59,29.84,29.73,6,1,6,0.01
2014-6-5,89,78,70,78,74,69,99,89,63,29.78,29.71,8,1,8,0.00
2014-6-6,92,80,71,79,74,70,99,83,56,29.83,29.73,9,1,9,0.00
2014-6-7,94,81,71,79,75,70,99,84,58,29.85,29.74,6,1,6,0.00
2014-6-8,93,81,72,78,75,72,99,83,53,29.84,29.70,8,1,8,0.00
2014-6-9,92,80,71,79,74,69,99,83,56,29.77,29.66,15,2,15,0.00
2014-6-10,81,73,68,77,72,67,99,97,86,29.77,29.61,24,2,24,0.71
2014-6-11,88,76,65,74,68,64,99,80,48,29.74,29.67,14,2,14,0.01
2014-6-12,90,77,64,76,71,63,99,83,52,29.93,29.71,8,1,8,0.00
2014-6-13,88,74,66,75,72,66,99,94,61,30.02,29.86,14,1,14,1.19
2014-6-14,92,80,64,76,70,63,99,76,48,29.97,29.91,7,1,7,0.00
2014-6-15,88,88,88,74,74,74,63,63,63,29.91,29.91,0,0,2,0.00
2014-6-16,89,80,69,80,75,69,99,86,66,29.92,29.73,4,1,4,0.04
2014-6-17,94,79,70,80,73,69,99,84,50,29.92,29.82,8,1,8,0.01
2014-6-18,93,78,68,79,72,68,99,84,52,29.89,29.83,8,1,8,0.00
2014-6-19,94,86,70,78,73,70,99,68,48,29.91,29.81,6,1,6,0.00
2014-6-20,92,78,69,80,73,69,99,87,57,29.87,29.77,6,1,9,0.01
2014-6-21,92,79,70,79,73,69,99,85,55,29.82,29.69,17,2,17,0.70
2014-6-22,89,76,71,81,74,70,99,93,70,29.76,29.67,9,1,9,0.20
2014-6-23,89,77,72,82,74,71,99,91,65,29.80,29.68,8,1,8,0.01
2014-6-24,91,77,69,79,73,68,99,89,56,29.85,29.77,9,1,9,0.61
2014-6-25,89,75,69,79,72,69,99,92,62,29.90,29.79,8,1,12,0.61
2014-6-26,87,74,69,79,72,69,99,94,73,29.88,29.74,7,1,7,0.35
2014-6-27,84,75,70,78,72,69,99,93,77,29.87,29.77,14,1,14,0.22
2014-6-28,90,76,70,81,74,69,99,93,73,29.88,29.80,8,1,8,0.41
2014-6-29,91,81,74,83,77,73,99,90,66,29.93,29.83,8,1,8,0.01
2014-6-30,93,79,73,81,76,72,99,92,59,29.87,29.75,6,1,6,0.00
2014-7-1,93,81,73,79,76,72,99,85,54,29.83,29.70,8,1,8,0.00
2014-7-2,96,82,71,80,75,70,99,82,52,29.89,29.72,11,2,11,0.44
2014-7-3,91,79,68,77,73,68,99,83,54,29.87,29.76,8,2,8,0.01
2014-7-4,88,77,66,76,73,64,97,89,47,29.95,29.83,7,0,7,0.01
2014-7-5,89,75,63,72,66,62,99,77,42,29.97,29.86,7,1,7,0.00
2014-7-6,92,76,62,76,68,61,99,79,44,29.89,29.77,6,1,6,0.00
2014-7-7,93,78,65,77,71,65,99,81,48,29.86,29.76,8,1,8,0.00
2014-7-8,91,80,69,79,74,69,99,85,58,29.89,29.77,9,1,9,0.01
2014-7-9,87,81,73,78,75,66,98,83,50,29.95,29.82,10,2,10,0.01
2014-7-10,94,80,70,79,73,69,99,83,50,29.94,29.81,9,2,9,0.06
2014-7-11,94,77,69,81,73,69,99,89,55,29.97,29.89,12,1,12,0.11
2014-7-12,92,80,69,80,74,69,99,84,54,29.97,29.86,8,1,8,0.00
2014-7-13,94,79,71,82,74,70,99,87,54,29.92,29.83,5,1,5,0.09
2014-7-14,93,79,70,80,74,69,99,87,58,29.88,29.75,10,1,10,0.01
2014-7-15,88,79,74,77,74,72,99,86,64,29.80,29.70,12,2,12,0.00
2014-7-16,87,76,66,73,65,57,97,73,38,29.83,29.74,10,3,10,0.00
2014-7-17,87,74,60,73,66,60,99,79,49,29.85,29.66,6,1,6,0.00
2014-7-18,79,74,71,77,73,70,99,95,87,29.83,29.71,6,1,10,1.32
2014-7-19,82,76,73,78,75,72,99,96,83,29.84,29.75,4,1,4,0.73
2014-7-20,89,78,73,79,75,72,99,92,65,29.85,29.77,4,1,4,0.00
2014-7-21,90,78,68,78,72,68,99,85,53,30.01,29.79,8,1,8,2.33
2014-7-22,88,76,68,78,72,68,99,88,63,29.97,29.91,8,1,8,0.11
2014-7-23,92,78,67,78,72,66,99,85,52,29.99,29.85,5,1,5,0.12
2014-7-24,92,79,70,79,74,69,99,85,55,29.94,29.83,4,1,4,0.00
2014-7-25,94,84,71,79,74,70,99,75,54,29.96,29.88,6,1,6,0.00
2014-7-26,92,91,71,77,74,71,98,58,56,29.92,29.88,0,0,5,0.00
2014-7-27,93,82,74,80,77,73,99,85,57,29.97,29.88,8,1,8,0.00
2014-7-28,93,82,74,80,77,73,99,86,63,29.96,29.84,13,2,13,0.00
2014-7-29,90,78,67,74,68,64,99,75,44,29.97,29.86,8,2,8,0.01
2014-7-30,87,73,60,67,63,60,99,75,43,29.98,29.88,8,2,8,0.00
2014-7-31,87,74,64,72,67,63,98,82,48,29.94,29.86,6,1,6,0.00
2014-8-1,77,72,69,74,71,68,99,95,82,29.91,29.83,5,1,5,0.09
2014-8-2,90,78,70,77,73,70,99,88,53,29.89,29.82,6,1,6,0.00
2014-8-3,92,79,73,79,74,72,99,86,53,29.91,29.81,6,1,6,0.00
2014-8-4,93,77,70,77,74,69,99,90,55,29.92,29.82,8,1,8,0.11
2014-8-5,94,81,68,79,74,68,99,83,52,29.95,29.87,4,1,4,0.00
2014-8-6,95,81,72,80,75,72,99,85,55,29.94,29.83,8,1,9,0.02
2014-8-7,94,81,72,81,76,72,99,84,55,29.90,29.78,7,1,7,0.00
2014-8-8,95,82,73,81,75,71,99,82,51,29.91,29.81,12,1,12,0.00
2014-8-9,94,80,73,82,75,72,99,87,56,29.93,29.82,19,1,19,0.32
2014-8-10,93,77,72,81,74,71,99,92,59,29.94,29.84,9,1,9,0.34
2014-8-11,92,76,72,82,74,70,99,94,63,29.93,29.81,7,1,7,0.51
2014-8-12,86,74,70,79,72,69,99,96,78,29.88,29.81,5,1,5,0.00
2014-8-13,89,78,67,73,69,66,98,78,47,29.91,29.84,7,2,7,0.00
2014-8-14,88,74,62,72,66,62,99,79,46,29.94,29.85,4,1,4,0.00
2014-8-15,90,75,62,74,67,61,99,79,42,29.93,29.83,5,1,5,0.00
2014-8-16,92,78,67,79,73,67,99,86,59,29.92,29.83,4,1,4,0.00
2014-8-17,93,79,72,81,74,71,99,86,58,29.93,29.86,11,2,11,0.00
2014-8-18,92,79,70,81,75,69,99,89,64,29.90,29.78,13,1,13,0.05
2014-8-19,94,81,73,81,75,72,99,84,51,29.89,29.79,7,1,7,0.00
2014-8-20,95,80,71,80,74,71,99,83,50,29.96,29.83,6,1,6,0.00
2014-8-21,96,80,70,80,74,69,99,84,50,30.02,29.95,5,1,7,0.00
2014-8-22,94,81,70,80,75,70,99,84,53,30.00,29.88,7,1,7,0.00
2014-8-23,95,82,72,82,76,72,99,86,50,29.93,29.79,8,1,8,0.02
2014-8-24,96,83,72,80,73,70,99,77,46,29.86,29.74,9,2,9,0.00
2014-8-25,93,80,73,78,75,72,99,84,57,29.84,29.75,10,2,10,0.07
2014-8-26,92,78,69,74,69,65,99,78,43,29.91,29.82,13,2,13,0.00
2014-8-27,95,80,67,75,70,66,99,78,44,29.92,29.83,11,1,11,0.00
2014-8-28,94,82,72,78,73,69,99,78,45,29.89,29.79,8,1,8,0.00
2014-8-29,92,79,71,78,74,71,99,85,52,29.90,29.81,74,1,74,0.00
2014-8-30,87,76,73,80,75,71,99,97,76,29.96,29.87,10,1,11,0.66
2014-8-31,92,79,72,84,75,71,99,88,57,29.97,29.89,7,1,7,0.00
2014-9-1,94,79,73,81,76,72,99,92,57,29.95,29.86,7,1,7,0.50
2014-9-2,93,81,72,82,76,72,99,86,59,29.97,29.83,8,1,8,1.43
2014-9-3,88,76,71,82,74,70,99,94,71,29.95,29.85,5,1,8,0.73
2014-9-4,93,78,69,80,74,68,99,86,57,29.97,29.88,18,1,18,0.01
2014-9-5,90,77,69,79,74,69,99,90,61,30.01,29.89,9,1,9,0.08
2014-9-6,91,78,68,79,73,68,99,86,52,29.95,29.82,7,1,7,0.01
2014-9-7,93,78,72,78,74,71,99,87,56,29.88,29.78,10,1,10,0.18
2014-9-8,92,79,70,80,74,70,99,88,56,29.90,29.81,5,1,5,0.01
2014-9-9,94,81,71,81,76,70,99,85,55,29.91,29.78,6,0,6,0.00
2014-9-10,94,81,72,80,75,71,99,85,55,29.86,29.77,7,1,7,0.00
2014-9-11,76,75,74,75,74,74,99,98,96,29.84,29.82,0,0,0,0.00
2014-9-12,93,77,71,79,74,70,99,91,54,29.93,29.82,6,1,6,0.22
2014-9-13,75,72,68,74,71,68,99,95,89,30.02,29.86,9,4,12,0.02
2014-9-14,88,76,67,75,71,66,97,86,62,30.03,29.93,10,3,10,0.00
2014-9-15,93,80,70,79,74,69,99,84,51,29.99,29.90,5,1,5,0.00
2014-9-16,93,80,73,78,75,71,99,86,50,29.97,29.83,9,1,9,0.56
2014-9-17,90,81,70,78,74,70,99,82,58,29.88,29.76,5,1,5,0.00
2014-9-18,85,77,70,78,74,69,99,92,75,29.84,29.74,4,0,4,0.00
2014-9-19,89,75,68,77,71,68,99,88,54,29.87,29.55,7,1,7,0.05
2014-9-20,89,75,67,75,70,66,99,85,52,29.91,29.57,11,1,11,0.00
2014-9-21,90,75,64,74,68,63,99,82,46,29.94,29.59,8,1,8,0.00
2014-9-22,87,73,61,72,65,57,99,78,41,29.96,29.63,13,2,13,0.00
2014-9-23,85,68,56,62,58,54,97,74,35,30.00,29.68,11,2,11,0.00
2014-9-24,86,69,57,70,63,57,99,83,49,30.05,29.96,9,1,9,0.00
2014-9-25,85,70,59,69,64,59,99,84,49,30.06,29.95,8,1,8,0.00
2014-9-26,86,72,62,70,65,61,99,83,50,29.99,29.88,10,1,10,0.00
2014-9-27,86,73,63,71,67,62,99,83,53,29.93,29.84,9,2,9,0.00
2014-9-28,84,74,69,76,72,68,98,92,75,29.90,29.80,6,2,6,0.02
2014-9-29,86,76,69,74,72,69,99,89,62,29.83,29.73,8,2,8,0.04
2014-9-30,88,76,66,76,70,65,99,86,56,29.80,29.70,8,1,8,0.00
2014-10-1,88,77,70,76,73,69,99,88,63,29.83,29.74,8,1,8,0.00
2014-10-2,92,79,74,80,76,72,99,92,61,29.87,29.75,7,1,9,0.15
2014-10-3,80,72,60,77,68,59,99,89,64,30.02,29.72,17,2,17,0.71
2014-10-4,72,60,48,59,48,36,99,72,29,30.10,29.97,17,4,17,0.00
2014-10-5,79,61,45,59,52,44,99,78,35,30.00,29.90,8,1,8,0.00
2014-10-6,86,70,58,71,65,57,99,87,55,29.97,29.86,8,1,8,0.00
2014-10-7,87,74,65,76,69,65,99,87,54,30.01,29.90,6,1,6,0.01
2014-10-8,90,74,62,75,68,61,99,85,51,30.07,29.97,6,1,6,0.00
2014-10-9,88,76,67,78,72,67,99,89,64,30.04,29.91,6,1,6,0.00
2014-10-10,90,78,71,78,73,70,99,86,54,30.00,29.90,9,1,9,0.00
2014-10-11,89,76,69,78,71,69,99,88,53,30.00,29.90,7,1,7,0.00
2014-10-12,88,75,66,77,71,66,99,87,56,29.95,29.83,8,1,8,0.00
2014-10-13,89,74,62,77,71,62,99,90,61,29.88,29.66,17,2,17,1.00
2014-10-14,74,62,50,62,55,47,99,81,42,29.95,29.76,11,3,11,0.09
2014-10-15,50,47,45,50,47,44,99,99,97,29.98,29.93,0,0,0,0.00
2014-10-16,48,48,48,47,47,47,99,99,99,29.98,29.98,0,0,0,0.00
2014-10-23,77,57,50,68,53,49,96,87,73,29.97,29.84,4,1,4,1.16
2014-10-24,77,58,43,56,48,42,99,76,30,30.00,29.91,10,2,10,0.00
2014-10-25,83,60,43,61,51,43,99,77,42,30.03,29.92,10,2,10,0.00
2014-11-5,73,68,64,67,66,55,99,93,74,29.96,29.85,2,0,2,0.04
2014-11-6,72,65,54,69,60,46,99,84,48,29.98,29.91,12,2,12,0.04
2014-11-7,64,51,42,46,38,29,93,64,29,30.02,29.82,14,4,14,0.00
2014-11-8,71,53,37,48,42,32,99,70,25,29.86,29.74,9,1,9,0.00
2014-11-9,70,53,39,48,44,39,99,76,35,29.90,29.76,11,2,11,0.00
2014-11-10,76,54,33,56,46,33,99,78,34,29.83,29.69,6,1,6,0.00
2014-11-11,81,66,54,67,60,54,99,86,52,29.83,29.70,12,1,12,0.00
2014-11-12,58,47,40,56,46,38,99,97,90,30.01,29.83,11,4,11,0.18
2014-11-13,40,39,37,38,35,32,90,87,83,30.02,29.99,13,5,13,0.00
2014-11-15,72,52,50,67,40,32,82,64,44,29.96,29.90,3,1,3,0.26
2014-11-16,71,62,51,67,60,44,99,90,75,29.91,29.54,13,3,13,1.33
2014-11-17,56,40,39,56,40,38,99,99,97,29.85,29.59,21,9,21,0.20
2014-11-18,39,39,39,38,38,38,99,99,99,29.85,29.85,10,10,11,0.20
2014-11-19,39,39,39,38,38,38,99,99,99,29.85,29.85,10,10,11,0.20
2015-1-2,68,59,50,66,58,46,99,95,83,30.54,30.38,4,1,4,0.09